Kezdőlap
METAR-TAF:

METAR-TAF

Repülőterek :

Omaha, Nebraska, Amerikai Egyesült Államok

földrajzi szélesség: 41-11-45N, földrajzi hosszúság: 096-06-44W, magasság: 320 m

Jelenlegi meteorológiai megfigyelések

A jelentés 10 perccel ezelõtt készült, 23:55 UTC
Déli szél 3 kt
Hőmérséklet 13°C
Páratartalom 44%
Légköri nyomás 1014 hPa
Látótávolság: 16.1 km
Derült ég

METAR: KMLE 222355Z AUTO 18003KT 10SM CLR 13/01 A2995 RMK AO2 T01280005 10148 20101

Idő: 18:05 (00:05 UTC)


TAF: hiányzik

Meteorológiai megfigyelések és előrejelzések több, mint 4000 repülőtéren (METAR és TAF jelentéseket).

A térképen piros és sárga pontok jelzik az elérhető meteorológiai állomásokat.

Mozgassa az egeret a pont fölött, hogy megjelenjen az állomás neve.

Azután kattintson az időjárási megfigyelések és előrejelzések megtekintéséhez.

A térkép megváltoztatása: kattintson a fekete keresztel jelölt zöld gombra ráközelítéshez, a vonallal jelölt zöld gombra távolításhoz, vagy a zöld nyilakra a szomszédos térképek eléréséhez.


METAR-TAF: